Port Lions, AK (99550)

2:40 PM AKDT on July 23, 2014 (GMT -0800)
Kodiak (PADQ) Elev 112 ft | 57.75 °N, 152.49 °W | Change Station

Current weather conditions updated 47 minutes ago

Mostly Cloudy
Mostly Cloudy
60 °F
Feels Like 60 °F
N
6
Wind Variable Wind from ESE

Today is forecast to be nearly the same temperature as yesterday.

Today
High -- | Low -- °F
--% Chance of Precip.
Yesterday
High -- | Low -- °F
Precip. -- in
5:49 AM 10:47 PM
Waning Crescent, 8% visible
Pressure 29.89 in
Visibility 10.0 miles
Clouds Scattered Clouds 3500 ft
Scattered Clouds 6500 ft
Mostly Cloudy 8000 ft
Dew Point 51 °F
Humidity 72%
Rainfall 0.00 in
Snow Depth Not available.
UV 4 out of 12
Pollen Not available.
Air Quality Not available.
Flu Activity Not available.
METAR PADQ 232153Z 11005KT 10SM SCT035 SCT065 BKN080 16/11 A2989 RMK AO2 RAB18E27 SLP121 P0000 T01560106

More Conditions Fewer Conditions

Pressure 29.89 in
Visibility 10.0 miles
Clouds Scattered Clouds 3500 ft
Scattered Clouds 6500 ft
Mostly Cloudy 8000 ft
Dew Point 51 °F
Humidity 72%
Rainfall 0.00 in
Snow Depth Not available.
UV 4 out of 12
Pollen Not available.
Air Quality Not available.
Flu Activity Not available.
METAR PADQ 232153Z 11005KT 10SM SCT035 SCT065 BKN080 16/11 A2989 RMK AO2 RAB18E27 SLP121 P0000 T01560106

More Conditions Fewer Conditions

10-Day Weather Forecast

Almanac

Astronomy

Jul. 23, 2014 Rise Set
Actual Time 5:49 AM AKDT 10:47 PM AKDT
Civil Twilight 4:50 AM AKDT 11:44 PM AKDT
Nautical Twilight 2:41 AM AKDT 1:43 AM AKDT
Astronomical Twilight Sun does not rise Sun does not rise
Moon 3:23 AM AKDT 8:18 PM AKDT
Length of Visible Light 18h 53m
Length of Day
16h 58m
Tomorrow will be 3m 50s shorter.
Waning Crescent, 8% of the Moon is Illuminated
Today
Waning Crescent
Jul 26
New
Aug 3
First Quarter
Aug 10
Full
Aug 17
Last Quarter

Today's Extremes

State Highs State Lows

Community

WunderPhotos

Upload Photos

1,736,806 photos uploaded!

Nearby

Snow Depth

Station Depth Elevation
Port Graham 0 in 300 ft
Nuka Glacier 23 in 1250 ft
Mcneil Canyon 1 in 1320 ft
MF Bradley River 24 in 2300 ft
Cooper Lake 15 in 1200 ft

Earthquake Activity

City Distance Mag. Time & Date
No recent earthquake activity has been reported nearby.
Minimum magnitude displayed is 2.5.

Coastal Water Temperatures

Place Temperature
No Stations Reporting

Nearby Weather Stations

Station Location Temp. Dew Point Humidity Wind Precip. Elev Updated Type
Pillar Mountain, Kodiak, AK 59.5 °F 51 °F 73% West  at  6.8 mph - / hr 1204 ft 2:26 PM AKDT Normal

Show More Stations Show Fewer Stations